sensor_id;sensor_type;location;lat;lon;timestamp;P1;durP1;ratioP1;P2;durP2;ratioP2
35245;SDS011;21379;50.962;6.960;2024-02-15T00:01:48;4.32;;;2.60;;
35245;SDS011;21379;50.962;6.960;2024-02-15T00:04:14;5.45;;;2.70;;
35245;SDS011;21379;50.962;6.960;2024-02-15T00:06:43;4.45;;;2.70;;
35245;SDS011;21379;50.962;6.960;2024-02-15T00:09:10;3.80;;;2.47;;
35245;SDS011;21379;50.962;6.960;2024-02-15T00:11:37;4.60;;;2.42;;
35245;SDS011;21379;50.962;6.960;2024-02-15T00:14:04;7.88;;;2.67;;
35245;SDS011;21379;50.962;6.960;2024-02-15T00:16:33;3.35;;;2.25;;
35245;SDS011;21379;50.962;6.960;2024-02-15T00:19:00;3.33;;;2.17;;
35245;SDS011;21379;50.962;6.960;2024-02-15T00:21:27;4.88;;;2.55;;
35245;SDS011;21379;50.962;6.960;2024-02-15T00:23:55;5.55;;;3.17;;
35245;SDS011;21379;50.962;6.960;2024-02-15T00:26:24;6.30;;;2.38;;
35245;SDS011;21379;50.962;6.960;2024-02-15T00:28:51;4.25;;;2.40;;
35245;SDS011;21379;50.962;6.960;2024-02-15T00:31:18;4.35;;;2.40;;
35245;SDS011;21379;50.962;6.960;2024-02-15T00:33:44;4.70;;;2.50;;
35245;SDS011;21379;50.962;6.960;2024-02-15T00:36:11;4.30;;;3.03;;
35245;SDS011;21379;50.962;6.960;2024-02-15T00:38:38;4.82;;;2.80;;
35245;SDS011;21379;50.962;6.960;2024-02-15T00:41:06;4.00;;;2.90;;
35245;SDS011;21379;50.962;6.960;2024-02-15T00:43:34;4.43;;;2.65;;
35245;SDS011;21379;50.962;6.960;2024-02-15T00:48:27;5.35;;;2.83;;
35245;SDS011;21379;50.962;6.960;2024-02-15T00:50:55;7.13;;;2.80;;
35245;SDS011;21379;50.962;6.960;2024-02-15T00:53:21;4.38;;;3.25;;
35245;SDS011;21379;50.962;6.960;2024-02-15T00:55:48;5.03;;;2.97;;
35245;SDS011;21379;50.962;6.960;2024-02-15T00:58:16;7.68;;;3.17;;
35245;SDS011;21379;50.962;6.960;2024-02-15T01:00:43;6.57;;;3.60;;
35245;SDS011;21379;50.962;6.960;2024-02-15T01:03:09;4.63;;;2.80;;
35245;SDS011;21379;50.962;6.960;2024-02-15T01:05:36;6.30;;;2.85;;
35245;SDS011;21379;50.962;6.960;2024-02-15T01:08:03;4.88;;;2.72;;
35245;SDS011;21379;50.962;6.960;2024-02-15T01:10:30;5.32;;;3.05;;
35245;SDS011;21379;50.962;6.960;2024-02-15T01:12:58;5.18;;;2.70;;
35245;SDS011;21379;50.962;6.960;2024-02-15T01:15:26;5.63;;;2.88;;
35245;SDS011;21379;50.962;6.960;2024-02-15T01:17:53;7.68;;;3.05;;
35245;SDS011;21379;50.962;6.960;2024-02-15T01:20:20;6.13;;;3.28;;
35245;SDS011;21379;50.962;6.960;2024-02-15T01:22:47;6.20;;;3.03;;
35245;SDS011;21379;50.962;6.960;2024-02-15T01:27:42;5.80;;;3.00;;
35245;SDS011;21379;50.962;6.960;2024-02-15T01:30:09;5.28;;;2.58;;
35245;SDS011;21379;50.962;6.960;2024-02-15T01:32:38;4.75;;;2.80;;
35245;SDS011;21379;50.962;6.960;2024-02-15T01:35:07;3.92;;;2.60;;
35245;SDS011;21379;50.962;6.960;2024-02-15T01:37:35;4.60;;;3.05;;
35245;SDS011;21379;50.962;6.960;2024-02-15T01:40:02;6.05;;;3.20;;
35245;SDS011;21379;50.962;6.960;2024-02-15T01:42:31;4.88;;;3.25;;
35245;SDS011;21379;50.962;6.960;2024-02-15T01:44:58;3.83;;;3.05;;
35245;SDS011;21379;50.962;6.960;2024-02-15T01:47:25;6.15;;;2.88;;
35245;SDS011;21379;50.962;6.960;2024-02-15T01:49:53;7.85;;;3.30;;
35245;SDS011;21379;50.962;6.960;2024-02-15T01:52:19;5.78;;;2.80;;
35245;SDS011;21379;50.962;6.960;2024-02-15T01:54:47;5.18;;;3.22;;
35245;SDS011;21379;50.962;6.960;2024-02-15T01:57:15;8.57;;;3.13;;
35245;SDS011;21379;50.962;6.960;2024-02-15T01:59:41;8.88;;;4.00;;
35245;SDS011;21379;50.962;6.960;2024-02-15T02:02:08;9.32;;;2.90;;
35245;SDS011;21379;50.962;6.960;2024-02-15T02:04:37;4.65;;;2.67;;
35245;SDS011;21379;50.962;6.960;2024-02-15T02:07:05;5.40;;;2.83;;
35245;SDS011;21379;50.962;6.960;2024-02-15T02:09:32;6.80;;;3.45;;
35245;SDS011;21379;50.962;6.960;2024-02-15T02:11:59;6.78;;;2.85;;
35245;SDS011;21379;50.962;6.960;2024-02-15T02:14:26;6.97;;;3.22;;
35245;SDS011;21379;50.962;6.960;2024-02-15T02:16:53;8.68;;;2.75;;
35245;SDS011;21379;50.962;6.960;2024-02-15T02:19:20;6.40;;;3.00;;
35245;SDS011;21379;50.962;6.960;2024-02-15T02:21:47;4.25;;;2.47;;
35245;SDS011;21379;50.962;6.960;2024-02-15T02:24:19;5.90;;;2.72;;
35245;SDS011;21379;50.962;6.960;2024-02-15T02:26:49;4.90;;;2.67;;
35245;SDS011;21379;50.962;6.960;2024-02-15T02:29:16;7.78;;;3.38;;
35245;SDS011;21379;50.962;6.960;2024-02-15T02:31:43;6.07;;;2.85;;
35245;SDS011;21379;50.962;6.960;2024-02-15T02:34:10;6.13;;;2.88;;
35245;SDS011;21379;50.962;6.960;2024-02-15T02:36:38;5.95;;;2.97;;
35245;SDS011;21379;50.962;6.960;2024-02-15T02:39:05;6.57;;;2.58;;
35245;SDS011;21379;50.962;6.960;2024-02-15T02:41:32;6.90;;;2.55;;
35245;SDS011;21379;50.962;6.960;2024-02-15T02:44:00;4.97;;;3.13;;
35245;SDS011;21379;50.962;6.960;2024-02-15T02:46:27;8.30;;;3.08;;
35245;SDS011;21379;50.962;6.960;2024-02-15T02:48:53;4.28;;;2.78;;
35245;SDS011;21379;50.962;6.960;2024-02-15T02:51:20;4.72;;;3.13;;
35245;SDS011;21379;50.962;6.960;2024-02-15T02:53:47;4.63;;;2.60;;
35245;SDS011;21379;50.962;6.960;2024-02-15T02:56:14;3.80;;;2.60;;
35245;SDS011;21379;50.962;6.960;2024-02-15T02:58:41;5.68;;;2.58;;
35245;SDS011;21379;50.962;6.960;2024-02-15T03:01:10;5.60;;;2.67;;
35245;SDS011;21379;50.962;6.960;2024-02-15T03:03:37;6.15;;;3.00;;
35245;SDS011;21379;50.962;6.960;2024-02-15T03:06:04;5.50;;;2.83;;
35245;SDS011;21379;50.962;6.960;2024-02-15T03:08:31;5.05;;;2.47;;
35245;SDS011;21379;50.962;6.960;2024-02-15T03:10:59;3.90;;;2.60;;
35245;SDS011;21379;50.962;6.960;2024-02-15T03:13:25;6.93;;;2.90;;
35245;SDS011;21379;50.962;6.960;2024-02-15T03:15:52;8.55;;;2.53;;
35245;SDS011;21379;50.962;6.960;2024-02-15T03:18:20;6.03;;;2.60;;
35245;SDS011;21379;50.962;6.960;2024-02-15T03:20:49;7.10;;;3.05;;
35245;SDS011;21379;50.962;6.960;2024-02-15T03:23:16;6.63;;;2.80;;
35245;SDS011;21379;50.962;6.960;2024-02-15T03:25:42;7.25;;;2.80;;
35245;SDS011;21379;50.962;6.960;2024-02-15T03:28:09;4.93;;;2.70;;
35245;SDS011;21379;50.962;6.960;2024-02-15T03:30:36;5.18;;;2.30;;
35245;SDS011;21379;50.962;6.960;2024-02-15T03:33:03;7.22;;;2.75;;
35245;SDS011;21379;50.962;6.960;2024-02-15T03:35:32;4.75;;;2.45;;
35245;SDS011;21379;50.962;6.960;2024-02-15T03:37:59;5.80;;;2.85;;
35245;SDS011;21379;50.962;6.960;2024-02-15T03:40:26;3.75;;;2.28;;
35245;SDS011;21379;50.962;6.960;2024-02-15T03:42:52;5.78;;;2.50;;
35245;SDS011;21379;50.962;6.960;2024-02-15T03:45:19;4.38;;;2.13;;
35245;SDS011;21379;50.962;6.960;2024-02-15T03:47:50;4.45;;;2.38;;
35245;SDS011;21379;50.962;6.960;2024-02-15T03:50:17;4.93;;;2.42;;
35245;SDS011;21379;50.962;6.960;2024-02-15T03:52:45;5.13;;;2.25;;
35245;SDS011;21379;50.962;6.960;2024-02-15T03:55:12;4.38;;;2.08;;
35245;SDS011;21379;50.962;6.960;2024-02-15T03:57:39;5.95;;;2.17;;
35245;SDS011;21379;50.962;6.960;2024-02-15T04:00:09;3.90;;;2.22;;
35245;SDS011;21379;50.962;6.960;2024-02-15T04:02:37;4.03;;;1.77;;
35245;SDS011;21379;50.962;6.960;2024-02-15T04:05:05;5.25;;;2.13;;
35245;SDS011;21379;50.962;6.960;2024-02-15T04:07:34;4.75;;;1.73;;
35245;SDS011;21379;50.962;6.960;2024-02-15T04:10:04;3.58;;;1.75;;
35245;SDS011;21379;50.962;6.960;2024-02-15T04:12:33;4.03;;;2.30;;
35245;SDS011;21379;50.962;6.960;2024-02-15T04:14:59;6.80;;;2.22;;
35245;SDS011;21379;50.962;6.960;2024-02-15T04:17:30;6.10;;;2.10;;
35245;SDS011;21379;50.962;6.960;2024-02-15T04:19:58;4.50;;;2.05;;
35245;SDS011;21379;50.962;6.960;2024-02-15T04:22:25;3.90;;;2.08;;
35245;SDS011;21379;50.962;6.960;2024-02-15T04:24:51;4.78;;;1.95;;
35245;SDS011;21379;50.962;6.960;2024-02-15T04:27:20;3.58;;;2.20;;
35245;SDS011;21379;50.962;6.960;2024-02-15T04:29:46;9.43;;;3.00;;
35245;SDS011;21379;50.962;6.960;2024-02-15T04:32:15;6.00;;;2.45;;
35245;SDS011;21379;50.962;6.960;2024-02-15T04:34:44;4.70;;;2.33;;
35245;SDS011;21379;50.962;6.960;2024-02-15T04:37:12;7.35;;;2.28;;
35245;SDS011;21379;50.962;6.960;2024-02-15T04:39:39;4.47;;;2.50;;
35245;SDS011;21379;50.962;6.960;2024-02-15T04:42:06;5.28;;;2.40;;
35245;SDS011;21379;50.962;6.960;2024-02-15T04:44:37;5.75;;;2.33;;
35245;SDS011;21379;50.962;6.960;2024-02-15T04:47:04;6.63;;;2.20;;
35245;SDS011;21379;50.962;6.960;2024-02-15T04:49:31;6.35;;;2.95;;
35245;SDS011;21379;50.962;6.960;2024-02-15T04:51:58;5.30;;;2.30;;
35245;SDS011;21379;50.962;6.960;2024-02-15T04:54:27;7.72;;;2.60;;
35245;SDS011;21379;50.962;6.960;2024-02-15T04:56:54;6.90;;;2.38;;
35245;SDS011;21379;50.962;6.960;2024-02-15T04:59:22;8.23;;;3.30;;
35245;SDS011;21379;50.962;6.960;2024-02-15T05:01:52;3.22;;;2.42;;
35245;SDS011;21379;50.962;6.960;2024-02-15T05:04:19;5.75;;;2.53;;
35245;SDS011;21379;50.962;6.960;2024-02-15T05:06:46;5.90;;;2.20;;
35245;SDS011;21379;50.962;6.960;2024-02-15T05:09:12;7.10;;;2.55;;
35245;SDS011;21379;50.962;6.960;2024-02-15T05:11:39;4.65;;;2.63;;
35245;SDS011;21379;50.962;6.960;2024-02-15T05:14:11;4.43;;;2.13;;
35245;SDS011;21379;50.962;6.960;2024-02-15T05:16:38;5.80;;;2.47;;
35245;SDS011;21379;50.962;6.960;2024-02-15T05:19:08;5.53;;;2.53;;
35245;SDS011;21379;50.962;6.960;2024-02-15T05:21:36;6.32;;;2.25;;
35245;SDS011;21379;50.962;6.960;2024-02-15T05:24:04;4.00;;;2.25;;
35245;SDS011;21379;50.962;6.960;2024-02-15T05:26:31;4.50;;;2.10;;
35245;SDS011;21379;50.962;6.960;2024-02-15T05:28:59;3.97;;;2.58;;
35245;SDS011;21379;50.962;6.960;2024-02-15T05:31:25;9.32;;;2.45;;
35245;SDS011;21379;50.962;6.960;2024-02-15T05:33:52;7.32;;;2.60;;
35245;SDS011;21379;50.962;6.960;2024-02-15T05:36:21;4.80;;;1.92;;
35245;SDS011;21379;50.962;6.960;2024-02-15T05:38:51;5.00;;;2.47;;
35245;SDS011;21379;50.962;6.960;2024-02-15T05:41:19;5.55;;;2.13;;
35245;SDS011;21379;50.962;6.960;2024-02-15T05:43:46;4.18;;;2.42;;
35245;SDS011;21379;50.962;6.960;2024-02-15T05:46:14;3.10;;;1.80;;
35245;SDS011;21379;50.962;6.960;2024-02-15T05:48:41;5.63;;;2.67;;
35245;SDS011;21379;50.962;6.960;2024-02-15T05:51:08;5.20;;;2.22;;
35245;SDS011;21379;50.962;6.960;2024-02-15T05:53:36;3.45;;;2.10;;
35245;SDS011;21379;50.962;6.960;2024-02-15T05:56:03;5.25;;;2.60;;
35245;SDS011;21379;50.962;6.960;2024-02-15T05:58:31;6.68;;;2.75;;
35245;SDS011;21379;50.962;6.960;2024-02-15T06:00:59;3.50;;;2.60;;
35245;SDS011;21379;50.962;6.960;2024-02-15T06:03:27;6.32;;;2.30;;
35245;SDS011;21379;50.962;6.960;2024-02-15T06:05:53;5.95;;;2.42;;
35245;SDS011;21379;50.962;6.960;2024-02-15T06:08:23;6.18;;;2.70;;
35245;SDS011;21379;50.962;6.960;2024-02-15T06:10:51;7.18;;;2.67;;
35245;SDS011;21379;50.962;6.960;2024-02-15T06:13:18;6.85;;;2.55;;
35245;SDS011;21379;50.962;6.960;2024-02-15T06:15:51;7.75;;;2.80;;
35245;SDS011;21379;50.962;6.960;2024-02-15T06:18:19;4.50;;;2.20;;
35245;SDS011;21379;50.962;6.960;2024-02-15T06:20:47;5.18;;;2.25;;
35245;SDS011;21379;50.962;6.960;2024-02-15T06:23:15;6.18;;;2.38;;
35245;SDS011;21379;50.962;6.960;2024-02-15T06:25:42;4.30;;;2.38;;
35245;SDS011;21379;50.962;6.960;2024-02-15T06:28:10;6.25;;;2.80;;
35245;SDS011;21379;50.962;6.960;2024-02-15T06:31:00;7.13;;;2.92;;
35245;SDS011;21379;50.962;6.960;2024-02-15T06:33:44;7.25;;;2.40;;
35245;SDS011;21379;50.962;6.960;2024-02-15T06:36:28;4.72;;;2.20;;
35245;SDS011;21379;50.962;6.960;2024-02-15T06:39:12;4.63;;;2.90;;
35245;SDS011;21379;50.962;6.960;2024-02-15T06:41:56;3.85;;;2.67;;
35245;SDS011;21379;50.962;6.960;2024-02-15T06:44:24;8.15;;;2.63;;
35245;SDS011;21379;50.962;6.960;2024-02-15T06:46:51;4.80;;;2.40;;
35245;SDS011;21379;50.962;6.960;2024-02-15T06:49:17;6.75;;;2.60;;
35245;SDS011;21379;50.962;6.960;2024-02-15T06:51:47;7.35;;;2.50;;
35245;SDS011;21379;50.962;6.960;2024-02-15T06:54:13;5.85;;;2.63;;
35245;SDS011;21379;50.962;6.960;2024-02-15T06:56:40;4.57;;;2.85;;
35245;SDS011;21379;50.962;6.960;2024-02-15T06:59:08;11.25;;;2.88;;
35245;SDS011;21379;50.962;6.960;2024-02-15T07:01:40;7.88;;;2.70;;
35245;SDS011;21379;50.962;6.960;2024-02-15T07:04:07;4.57;;;2.80;;
35245;SDS011;21379;50.962;6.960;2024-02-15T07:06:35;11.40;;;2.75;;
35245;SDS011;21379;50.962;6.960;2024-02-15T07:09:02;5.18;;;2.55;;
35245;SDS011;21379;50.962;6.960;2024-02-15T07:11:29;5.57;;;3.03;;
35245;SDS011;21379;50.962;6.960;2024-02-15T07:13:57;8.32;;;2.75;;
35245;SDS011;21379;50.962;6.960;2024-02-15T07:16:24;7.00;;;2.17;;
35245;SDS011;21379;50.962;6.960;2024-02-15T07:18:52;7.53;;;2.63;;
35245;SDS011;21379;50.962;6.960;2024-02-15T07:21:19;6.63;;;2.67;;
35245;SDS011;21379;50.962;6.960;2024-02-15T07:23:50;5.45;;;2.30;;
35245;SDS011;21379;50.962;6.960;2024-02-15T07:26:19;7.35;;;2.78;;
35245;SDS011;21379;50.962;6.960;2024-02-15T07:28:49;14.88;;;3.88;;
35245;SDS011;21379;50.962;6.960;2024-02-15T07:31:18;9.07;;;2.40;;
35245;SDS011;21379;50.962;6.960;2024-02-15T07:33:46;7.25;;;2.60;;
35245;SDS011;21379;50.962;6.960;2024-02-15T07:36:18;5.25;;;2.60;;
35245;SDS011;21379;50.962;6.960;2024-02-15T07:38:46;7.32;;;2.80;;
35245;SDS011;21379;50.962;6.960;2024-02-15T07:41:13;8.93;;;2.97;;
35245;SDS011;21379;50.962;6.960;2024-02-15T07:43:40;7.07;;;3.08;;
35245;SDS011;21379;50.962;6.960;2024-02-15T07:46:11;10.38;;;2.85;;
35245;SDS011;21379;50.962;6.960;2024-02-15T07:48:38;8.35;;;3.33;;
35245;SDS011;21379;50.962;6.960;2024-02-15T07:51:10;5.22;;;2.72;;
35245;SDS011;21379;50.962;6.960;2024-02-15T07:53:39;7.53;;;2.78;;
35245;SDS011;21379;50.962;6.960;2024-02-15T07:56:06;7.85;;;2.97;;
35245;SDS011;21379;50.962;6.960;2024-02-15T07:58:33;5.10;;;3.00;;
35245;SDS011;21379;50.962;6.960;2024-02-15T08:00:59;10.20;;;2.92;;
35245;SDS011;21379;50.962;6.960;2024-02-15T08:03:26;8.40;;;2.90;;
35245;SDS011;21379;50.962;6.960;2024-02-15T08:05:54;7.70;;;2.85;;
35245;SDS011;21379;50.962;6.960;2024-02-15T08:08:21;9.57;;;3.03;;
35245;SDS011;21379;50.962;6.960;2024-02-15T08:10:50;5.22;;;2.78;;
35245;SDS011;21379;50.962;6.960;2024-02-15T08:13:16;7.15;;;3.03;;
35245;SDS011;21379;50.962;6.960;2024-02-15T08:15:47;8.80;;;3.17;;
35245;SDS011;21379;50.962;6.960;2024-02-15T08:18:17;8.98;;;2.63;;
35245;SDS011;21379;50.962;6.960;2024-02-15T08:20:45;8.07;;;3.65;;
35245;SDS011;21379;50.962;6.960;2024-02-15T08:23:12;9.30;;;3.17;;
35245;SDS011;21379;50.962;6.960;2024-02-15T08:25:38;12.15;;;3.70;;
35245;SDS011;21379;50.962;6.960;2024-02-15T08:28:08;10.40;;;3.25;;
35245;SDS011;21379;50.962;6.960;2024-02-15T08:30:34;6.10;;;3.45;;
35245;SDS011;21379;50.962;6.960;2024-02-15T08:33:03;7.47;;;3.10;;
35245;SDS011;21379;50.962;6.960;2024-02-15T08:35:30;7.93;;;2.83;;
35245;SDS011;21379;50.962;6.960;2024-02-15T08:37:57;6.68;;;2.63;;
35245;SDS011;21379;50.962;6.960;2024-02-15T08:40:23;6.82;;;2.88;;
35245;SDS011;21379;50.962;6.960;2024-02-15T08:42:51;8.95;;;2.83;;
35245;SDS011;21379;50.962;6.960;2024-02-15T08:45:19;9.60;;;2.88;;
35245;SDS011;21379;50.962;6.960;2024-02-15T08:47:46;6.10;;;2.80;;
35245;SDS011;21379;50.962;6.960;2024-02-15T08:50:15;6.60;;;2.70;;
35245;SDS011;21379;50.962;6.960;2024-02-15T08:52:42;9.35;;;2.80;;
35245;SDS011;21379;50.962;6.960;2024-02-15T08:55:09;11.70;;;3.03;;
35245;SDS011;21379;50.962;6.960;2024-02-15T08:57:39;7.00;;;2.70;;
35245;SDS011;21379;50.962;6.960;2024-02-15T09:00:07;3.83;;;2.65;;
35245;SDS011;21379;50.962;6.960;2024-02-15T09:02:39;6.03;;;3.00;;
35245;SDS011;21379;50.962;6.960;2024-02-15T09:05:06;9.55;;;3.05;;
35245;SDS011;21379;50.962;6.960;2024-02-15T09:07:33;8.73;;;2.88;;
35245;SDS011;21379;50.962;6.960;2024-02-15T09:10:01;6.82;;;2.15;;
35245;SDS011;21379;50.962;6.960;2024-02-15T09:12:28;5.22;;;2.53;;
35245;SDS011;21379;50.962;6.960;2024-02-15T09:14:56;7.32;;;2.75;;
35245;SDS011;21379;50.962;6.960;2024-02-15T09:17:23;6.22;;;2.72;;
35245;SDS011;21379;50.962;6.960;2024-02-15T09:19:52;7.65;;;2.40;;
35245;SDS011;21379;50.962;6.960;2024-02-15T09:22:19;7.45;;;2.42;;
35245;SDS011;21379;50.962;6.960;2024-02-15T09:24:46;4.07;;;1.75;;
35245;SDS011;21379;50.962;6.960;2024-02-15T09:27:13;8.35;;;3.10;;
35245;SDS011;21379;50.962;6.960;2024-02-15T09:29:39;5.85;;;2.50;;
35245;SDS011;21379;50.962;6.960;2024-02-15T09:32:07;6.50;;;2.17;;
35245;SDS011;21379;50.962;6.960;2024-02-15T09:34:34;6.65;;;2.25;;
35245;SDS011;21379;50.962;6.960;2024-02-15T09:37:02;8.52;;;2.50;;
35245;SDS011;21379;50.962;6.960;2024-02-15T09:39:30;5.82;;;2.90;;
35245;SDS011;21379;50.962;6.960;2024-02-15T09:41:57;5.68;;;2.55;;
35245;SDS011;21379;50.962;6.960;2024-02-15T09:44:24;10.27;;;2.90;;
35245;SDS011;21379;50.962;6.960;2024-02-15T09:46:56;8.05;;;2.80;;
35245;SDS011;21379;50.962;6.960;2024-02-15T09:49:29;4.78;;;2.22;;
35245;SDS011;21379;50.962;6.960;2024-02-15T09:51:59;5.90;;;2.50;;
35245;SDS011;21379;50.962;6.960;2024-02-15T09:54:27;6.53;;;2.60;;
35245;SDS011;21379;50.962;6.960;2024-02-15T09:56:54;6.88;;;2.88;;
35245;SDS011;21379;50.962;6.960;2024-02-15T09:59:22;4.90;;;2.33;;
35245;SDS011;21379;50.962;6.960;2024-02-15T10:01:49;6.95;;;3.42;;
35245;SDS011;21379;50.962;6.960;2024-02-15T10:04:16;7.65;;;1.92;;
35245;SDS011;21379;50.962;6.960;2024-02-15T10:06:43;10.40;;;2.20;;
35245;SDS011;21379;50.962;6.960;2024-02-15T10:09:25;5.72;;;2.30;;
35245;SDS011;21379;50.962;6.960;2024-02-15T10:11:54;6.30;;;2.30;;
35245;SDS011;21379;50.962;6.960;2024-02-15T10:14:24;4.93;;;1.63;;
35245;SDS011;21379;50.962;6.960;2024-02-15T10:16:51;7.82;;;1.95;;
35245;SDS011;21379;50.962;6.960;2024-02-15T10:19:19;5.05;;;1.80;;
35245;SDS011;21379;50.962;6.960;2024-02-15T10:21:50;3.03;;;1.65;;
35245;SDS011;21379;50.962;6.960;2024-02-15T10:24:20;3.53;;;1.75;;
35245;SDS011;21379;50.962;6.960;2024-02-15T10:26:49;4.22;;;1.27;;
35245;SDS011;21379;50.962;6.960;2024-02-15T10:29:17;6.93;;;1.80;;
35245;SDS011;21379;50.962;6.960;2024-02-15T10:31:52;6.63;;;1.50;;
35245;SDS011;21379;50.962;6.960;2024-02-15T10:34:19;6.05;;;1.52;;
35245;SDS011;21379;50.962;6.960;2024-02-15T10:36:46;8.10;;;1.80;;
35245;SDS011;21379;50.962;6.960;2024-02-15T10:39:13;5.45;;;1.40;;
35245;SDS011;21379;50.962;6.960;2024-02-15T10:41:45;3.92;;;1.90;;
35245;SDS011;21379;50.962;6.960;2024-02-15T10:44:16;4.60;;;1.50;;
35245;SDS011;21379;50.962;6.960;2024-02-15T10:46:44;6.78;;;1.45;;
35245;SDS011;21379;50.962;6.960;2024-02-15T10:49:16;5.10;;;1.38;;
35245;SDS011;21379;50.962;6.960;2024-02-15T10:51:48;4.30;;;1.48;;
35245;SDS011;21379;50.962;6.960;2024-02-15T10:54:19;4.47;;;1.60;;
35245;SDS011;21379;50.962;6.960;2024-02-15T10:56:53;7.90;;;1.83;;
35245;SDS011;21379;50.962;6.960;2024-02-15T10:59:23;5.88;;;1.65;;
35245;SDS011;21379;50.962;6.960;2024-02-15T11:01:53;4.40;;;1.80;;
35245;SDS011;21379;50.962;6.960;2024-02-15T11:04:22;3.60;;;2.28;;
35245;SDS011;21379;50.962;6.960;2024-02-15T11:06:52;7.22;;;1.52;;
35245;SDS011;21379;50.962;6.960;2024-02-15T11:09:21;2.97;;;1.63;;
35245;SDS011;21379;50.962;6.960;2024-02-15T11:11:48;4.93;;;1.70;;
35245;SDS011;21379;50.962;6.960;2024-02-15T11:14:24;6.35;;;2.15;;
35245;SDS011;21379;50.962;6.960;2024-02-15T11:16:52;14.25;;;2.75;;
35245;SDS011;21379;50.962;6.960;2024-02-15T11:22:12;3.58;;;1.90;;
35245;SDS011;21379;50.962;6.960;2024-02-15T11:24:47;5.25;;;1.65;;
35245;SDS011;21379;50.962;6.960;2024-02-15T11:27:23;5.63;;;1.70;;
35245;SDS011;21379;50.962;6.960;2024-02-15T11:29:53;4.53;;;1.15;;
35245;SDS011;21379;50.962;6.960;2024-02-15T11:32:40;6.32;;;1.92;;
35245;SDS011;21379;50.962;6.960;2024-02-15T11:35:09;6.35;;;1.77;;
35245;SDS011;21379;50.962;6.960;2024-02-15T11:37:48;5.03;;;1.77;;
35245;SDS011;21379;50.962;6.960;2024-02-15T11:40:19;4.88;;;1.80;;
35245;SDS011;21379;50.962;6.960;2024-02-15T11:42:48;4.05;;;1.27;;
35245;SDS011;21379;50.962;6.960;2024-02-15T11:45:17;4.43;;;1.55;;
35245;SDS011;21379;50.962;6.960;2024-02-15T11:47:47;3.22;;;1.60;;
35245;SDS011;21379;50.962;6.960;2024-02-15T11:50:15;4.25;;;1.60;;
35245;SDS011;21379;50.962;6.960;2024-02-15T11:52:42;4.72;;;2.03;;
35245;SDS011;21379;50.962;6.960;2024-02-15T11:55:10;5.00;;;1.58;;
35245;SDS011;21379;50.962;6.960;2024-02-15T11:57:38;6.60;;;1.65;;
35245;SDS011;21379;50.962;6.960;2024-02-15T12:00:21;4.47;;;1.48;;
35245;SDS011;21379;50.962;6.960;2024-02-15T12:03:06;7.95;;;1.70;;
35245;SDS011;21379;50.962;6.960;2024-02-15T12:05:50;3.03;;;1.30;;
35245;SDS011;21379;50.962;6.960;2024-02-15T12:08:35;5.15;;;1.70;;
35245;SDS011;21379;50.962;6.960;2024-02-15T12:11:19;5.63;;;1.98;;
35245;SDS011;21379;50.962;6.960;2024-02-15T12:14:03;2.67;;;1.35;;
35245;SDS011;21379;50.962;6.960;2024-02-15T12:16:48;5.00;;;1.35;;
35245;SDS011;21379;50.962;6.960;2024-02-15T12:19:42;5.70;;;2.20;;
35245;SDS011;21379;50.962;6.960;2024-02-15T12:22:09;3.33;;;1.20;;
35245;SDS011;21379;50.962;6.960;2024-02-15T12:24:36;4.95;;;1.70;;
35245;SDS011;21379;50.962;6.960;2024-02-15T12:27:03;4.75;;;1.65;;
35245;SDS011;21379;50.962;6.960;2024-02-15T12:29:31;4.80;;;1.52;;
35245;SDS011;21379;50.962;6.960;2024-02-15T12:31:59;6.28;;;1.95;;
35245;SDS011;21379;50.962;6.960;2024-02-15T12:34:26;5.40;;;1.63;;
35245;SDS011;21379;50.962;6.960;2024-02-15T12:37:05;3.67;;;1.60;;
35245;SDS011;21379;50.962;6.960;2024-02-15T12:39:34;4.57;;;1.67;;
35245;SDS011;21379;50.962;6.960;2024-02-15T12:42:02;6.55;;;1.63;;
35245;SDS011;21379;50.962;6.960;2024-02-15T12:44:29;6.07;;;1.40;;
35245;SDS011;21379;50.962;6.960;2024-02-15T12:46:57;3.53;;;1.40;;
35245;SDS011;21379;50.962;6.960;2024-02-15T12:49:28;4.97;;;1.98;;
35245;SDS011;21379;50.962;6.960;2024-02-15T12:55:05;5.13;;;1.70;;
35245;SDS011;21379;50.962;6.960;2024-02-15T12:57:34;2.30;;;1.05;;
35245;SDS011;21379;50.962;6.960;2024-02-15T13:00:01;3.88;;;1.58;;
35245;SDS011;21379;50.962;6.960;2024-02-15T13:02:37;3.13;;;1.63;;
35245;SDS011;21379;50.962;6.960;2024-02-15T13:05:04;4.57;;;1.60;;
35245;SDS011;21379;50.962;6.960;2024-02-15T13:07:33;5.75;;;1.70;;
35245;SDS011;21379;50.962;6.960;2024-02-15T13:10:00;3.35;;;1.48;;
35245;SDS011;21379;50.962;6.960;2024-02-15T13:12:26;2.70;;;1.20;;
35245;SDS011;21379;50.962;6.960;2024-02-15T13:14:53;3.85;;;1.23;;
35245;SDS011;21379;50.962;6.960;2024-02-15T13:17:20;4.32;;;1.38;;
35245;SDS011;21379;50.962;6.960;2024-02-15T13:19:49;3.53;;;1.52;;
35245;SDS011;21379;50.962;6.960;2024-02-15T13:22:15;6.00;;;1.50;;
35245;SDS011;21379;50.962;6.960;2024-02-15T13:24:43;3.78;;;1.40;;
35245;SDS011;21379;50.962;6.960;2024-02-15T13:27:10;6.07;;;1.60;;
35245;SDS011;21379;50.962;6.960;2024-02-15T13:29:37;3.40;;;1.40;;
35245;SDS011;21379;50.962;6.960;2024-02-15T13:34:32;6.22;;;1.50;;
35245;SDS011;21379;50.962;6.960;2024-02-15T13:37:00;5.97;;;1.50;;
35245;SDS011;21379;50.962;6.960;2024-02-15T13:39:29;6.95;;;1.70;;
35245;SDS011;21379;50.962;6.960;2024-02-15T13:41:58;6.93;;;1.30;;
35245;SDS011;21379;50.962;6.960;2024-02-15T13:44:25;3.50;;;1.70;;
35245;SDS011;21379;50.962;6.960;2024-02-15T13:46:51;6.70;;;1.73;;
35245;SDS011;21379;50.962;6.960;2024-02-15T13:49:20;4.38;;;1.48;;
35245;SDS011;21379;50.962;6.960;2024-02-15T13:51:47;5.50;;;1.45;;
35245;SDS011;21379;50.962;6.960;2024-02-15T13:54:18;4.20;;;1.58;;
35245;SDS011;21379;50.962;6.960;2024-02-15T13:56:45;3.60;;;1.70;;
35245;SDS011;21379;50.962;6.960;2024-02-15T13:59:11;2.95;;;1.10;;
35245;SDS011;21379;50.962;6.960;2024-02-15T14:01:38;6.15;;;2.10;;
35245;SDS011;21379;50.962;6.960;2024-02-15T14:04:10;5.03;;;1.25;;
35245;SDS011;21379;50.962;6.960;2024-02-15T14:06:37;3.72;;;1.40;;
35245;SDS011;21379;50.962;6.960;2024-02-15T14:09:05;4.82;;;1.25;;
35245;SDS011;21379;50.962;6.960;2024-02-15T14:11:33;5.90;;;1.55;;
35245;SDS011;21379;50.962;6.960;2024-02-15T14:14:00;2.53;;;1.00;;
35245;SDS011;21379;50.962;6.960;2024-02-15T14:16:26;6.93;;;1.40;;
35245;SDS011;21379;50.962;6.960;2024-02-15T14:18:54;5.10;;;1.40;;
35245;SDS011;21379;50.962;6.960;2024-02-15T14:21:21;4.10;;;1.20;;
35245;SDS011;21379;50.962;6.960;2024-02-15T14:23:47;3.88;;;1.45;;
35245;SDS011;21379;50.962;6.960;2024-02-15T14:26:14;7.78;;;1.60;;
35245;SDS011;21379;50.962;6.960;2024-02-15T14:28:43;4.35;;;1.40;;
35245;SDS011;21379;50.962;6.960;2024-02-15T14:31:10;4.82;;;1.38;;
35245;SDS011;21379;50.962;6.960;2024-02-15T14:33:54;5.03;;;1.67;;
35245;SDS011;21379;50.962;6.960;2024-02-15T14:36:21;6.00;;;1.45;;
35245;SDS011;21379;50.962;6.960;2024-02-15T14:38:48;3.88;;;1.45;;
35245;SDS011;21379;50.962;6.960;2024-02-15T14:41:15;3.53;;;1.50;;
35245;SDS011;21379;50.962;6.960;2024-02-15T14:43:41;9.15;;;1.38;;
35245;SDS011;21379;50.962;6.960;2024-02-15T14:46:10;5.43;;;1.55;;
35245;SDS011;21379;50.962;6.960;2024-02-15T14:48:37;3.28;;;1.10;;
35245;SDS011;21379;50.962;6.960;2024-02-15T14:51:05;5.88;;;1.15;;
35245;SDS011;21379;50.962;6.960;2024-02-15T14:53:34;4.55;;;1.13;;
35245;SDS011;21379;50.962;6.960;2024-02-15T14:56:01;3.72;;;1.58;;
35245;SDS011;21379;50.962;6.960;2024-02-15T14:58:30;4.43;;;1.30;;
35245;SDS011;21379;50.962;6.960;2024-02-15T15:00:56;5.30;;;1.70;;
35245;SDS011;21379;50.962;6.960;2024-02-15T15:03:25;7.63;;;1.52;;
35245;SDS011;21379;50.962;6.960;2024-02-15T15:05:51;8.60;;;1.30;;
35245;SDS011;21379;50.962;6.960;2024-02-15T15:08:35;6.10;;;1.75;;
35245;SDS011;21379;50.962;6.960;2024-02-15T15:11:20;3.15;;;1.05;;